Terminal Aerodrome Forecast
Issued by NWS

Home | Current Version | Previous Version | Graphics & Text | Print | Product List | Glossary On
Versions: 1 2 3 4 5 6 7 8 9 10 11 12 13 14 15 16 17 18 19 20 21
000
FTUS43 KUNR 232300
TAFGCC
TAF
KGCC 232333Z 2400/2424 15017KT P6SM -SHRA BKN070
      TEMPO 2400/2402 -TSRA BKN050CB
     FM240600 30018G28KT P6SM BKN040=

USA.gov is the U.S. government's official web portal to all federal, state and local government web resources and services.